createdAt,value
2023-02-18T00:02:24.656Z,98408.75
2023-02-18T00:07:26.732Z,98410.41
2023-02-18T00:12:30.227Z,98409.81
2023-02-18T00:17:32.055Z,98418.03
2023-02-18T00:22:33.930Z,98417.59
2023-02-18T00:27:35.788Z,98417.78
2023-02-18T00:32:38.252Z,98407.16
2023-02-18T00:37:40.080Z,98422.56
2023-02-18T00:42:41.914Z,98412.44
2023-02-18T00:47:43.790Z,98417.06
2023-02-18T00:52:46.008Z,98412.34
2023-02-18T00:57:47.829Z,98412.50
2023-02-18T01:02:54.043Z,98417.22
2023-02-18T01:07:57.441Z,98415.56
2023-02-18T01:12:59.392Z,98407.16
2023-02-18T01:18:01.529Z,98414.50
2023-02-18T01:23:04.552Z,98417.56
2023-02-18T01:28:08.381Z,98415.84
2023-02-18T01:33:10.965Z,98420.75
2023-02-18T01:38:13.781Z,98424.78
2023-02-18T01:43:16.471Z,98406.31
2023-02-18T01:48:53.967Z,98413.47
2023-02-18T01:53:55.820Z,98411.81
2023-02-18T01:59:05.081Z,98411.38
2023-02-18T02:04:07.017Z,98411.81
2023-02-18T02:09:12.810Z,98403.16
2023-02-18T02:14:26.888Z,98400.44
2023-02-18T02:19:41.934Z,98419.69
2023-02-18T02:25:25.106Z,98419.69
2023-02-18T02:30:47.728Z,98413.50
2023-02-18T02:35:59.764Z,98405.88
2023-02-18T02:41:15.880Z,98415.16
2023-02-18T02:46:24.266Z,98416.28
2023-02-18T02:51:28.933Z,98422.16
2023-02-18T02:56:31.926Z,98433.53
2023-02-18T03:02:02.071Z,98416.72
2023-02-18T03:07:07.049Z,98418.63
2023-02-18T03:12:34.918Z,98414.88
2023-02-18T03:17:55.655Z,98410.94
2023-02-18T03:23:00.254Z,98419.25
2023-02-18T03:28:07.427Z,98419.97
2023-02-18T03:33:14.403Z,98413.91
2023-02-18T03:38:21.375Z,98426.00
2023-02-18T03:43:23.899Z,98417.75
2023-02-18T03:48:25.950Z,98417.09
2023-02-18T03:53:27.768Z,98416.81
2023-02-18T03:58:29.644Z,98416.88
2023-02-18T04:03:31.993Z,98407.53
2023-02-18T04:08:33.934Z,98419.16
2023-02-18T04:13:35.791Z,98421.78
2023-02-18T04:18:37.587Z,98424.41
2023-02-18T04:23:39.433Z,98424.28
2023-02-18T04:28:41.252Z,98428.06
2023-02-18T04:33:43.088Z,98426.84
2023-02-18T04:38:44.960Z,98418.09
2023-02-18T04:43:46.826Z,98411.19
2023-02-18T04:48:48.636Z,98400.06
2023-02-18T04:53:50.690Z,98402.69
2023-02-18T04:58:52.517Z,98399.88
2023-02-18T05:03:54.377Z,98399.97
2023-02-18T05:08:56.219Z,98407.34
2023-02-18T05:13:58.085Z,98412.50
2023-02-18T05:19:00.136Z,98404.69
2023-02-18T05:24:01.974Z,98407.69
2023-02-18T05:29:04.377Z,98400.13
2023-02-18T05:34:06.184Z,98387.53
2023-02-18T05:39:07.985Z,98382.09
2023-02-18T05:44:28.379Z,98379.22
2023-02-18T05:49:32.344Z,98363.63
2023-02-18T05:54:35.315Z,98361.25
2023-02-18T05:59:37.177Z,98370.50
2023-02-18T06:04:40.675Z,98363.34
2023-02-18T06:09:42.517Z,98364.84
2023-02-18T06:14:44.433Z,98361.94
2023-02-18T06:19:46.655Z,98373.56
2023-02-18T06:24:48.456Z,98370.31
2023-02-18T06:29:50.321Z,98361.50
2023-02-18T06:34:52.127Z,98362.72
2023-02-18T06:39:53.967Z,98362.97
2023-02-18T06:44:55.761Z,98361.00
2023-02-18T06:49:57.586Z,98353.16
2023-02-18T06:54:59.402Z,98348.09
2023-02-18T07:00:01.915Z,98340.66
2023-02-18T07:05:03.853Z,98342.66
2023-02-18T07:10:06.963Z,98335.63
2023-02-18T07:15:09.231Z,98343.41
2023-02-18T07:20:11.169Z,98335.81
2023-02-18T07:25:13.182Z,98318.31
2023-02-18T07:30:15.753Z,98309.91
2023-02-18T07:35:18.493Z,98309.56
2023-02-18T07:40:22.374Z,98294.97
2023-02-18T07:45:24.253Z,98293.41
2023-02-18T07:50:26.164Z,98297.16
2023-02-18T07:55:48.018Z,98276.06
2023-02-18T08:00:50.797Z,98280.19
2023-02-18T08:05:53.510Z,98271.19
2023-02-18T08:10:59.638Z,98265.22
2023-02-18T08:16:02.843Z,98259.06
2023-02-18T08:21:04.928Z,98251.28
2023-02-18T08:26:07.474Z,98243.59
2023-02-18T08:31:28.897Z,98226.84
2023-02-18T08:36:31.220Z,98214.63
2023-02-18T08:41:33.232Z,98216.50
2023-02-18T08:46:35.349Z,98194.63
2023-02-18T08:51:37.579Z,98193.69
2023-02-18T08:56:39.857Z,98185.09
2023-02-18T09:01:41.736Z,98177.66
2023-02-18T09:06:43.767Z,98169.25
2023-02-18T09:11:46.047Z,98162.41
2023-02-18T09:16:47.980Z,98153.19
2023-02-18T09:21:49.890Z,98142.28
2023-02-18T09:26:51.742Z,98132.00
2023-02-18T09:31:53.649Z,98131.38
2023-02-18T09:36:55.614Z,98112.00
2023-02-18T09:42:00.963Z,98110.63
2023-02-18T09:47:13.482Z,98094.19
2023-02-18T09:52:20.681Z,98084.56
2023-02-18T09:57:37.456Z,98096.16
2023-02-18T10:02:44.710Z,98070.28
2023-02-18T10:07:49.745Z,98067.81
2023-02-18T10:12:53.243Z,98074.03
2023-02-18T10:17:58.320Z,98065.84
2023-02-18T10:23:02.694Z,98065.47
2023-02-18T10:28:05.036Z,98049.56
2023-02-18T10:33:22.735Z,98043.81
2023-02-18T10:38:40.049Z,98032.94
2023-02-18T10:43:55.631Z,98036.06
2023-02-18T10:49:00.168Z,98023.19
2023-02-18T10:54:02.199Z,98004.97
2023-02-18T10:59:24.554Z,97988.72
2023-02-18T11:04:37.565Z,97980.28
2023-02-18T11:09:49.364Z,97961.47
2023-02-18T11:15:16.728Z,97944.50
2023-02-18T11:20:24.328Z,97929.13
2023-02-18T11:25:33.186Z,97908.16
2023-02-18T11:30:41.234Z,97908.69
2023-02-18T11:35:50.648Z,97906.44
2023-02-18T11:41:07.851Z,97903.50
2023-02-18T11:46:12.528Z,97889.16
2023-02-18T11:51:20.776Z,97888.69
2023-02-18T11:56:22.659Z,97888.72
2023-02-18T12:01:41.812Z,97876.97
2023-02-18T12:06:50.920Z,97876.09
2023-02-18T12:12:00.838Z,97865.22
2023-02-18T12:17:14.531Z,97874.13
2023-02-18T12:22:26.850Z,97862.00
2023-02-18T12:27:50.946Z,97858.09
2023-02-18T12:33:14.409Z,97851.09
2023-02-18T12:38:21.899Z,97855.81
2023-02-18T12:43:48.424Z,97862.00
2023-02-18T12:49:05.775Z,97872.03
2023-02-18T12:54:32.173Z,97857.06
2023-02-18T12:59:43.845Z,97871.19
2023-02-18T13:05:13.600Z,97844.16
2023-02-18T13:10:38.738Z,97846.03
2023-02-18T13:15:48.290Z,97849.50
2023-02-18T13:20:55.714Z,97832.47
2023-02-18T13:26:01.562Z,97824.75
2023-02-18T13:31:37.752Z,97838.00
2023-02-18T13:36:55.456Z,97854.41
2023-02-18T13:42:25.136Z,97826.38
2023-02-18T13:47:46.506Z,97850.97
2023-02-18T13:52:50.735Z,97843.16
2023-02-18T13:57:56.083Z,97851.72
2023-02-18T14:03:02.553Z,97848.59
2023-02-18T14:08:15.056Z,97853.97
2023-02-18T14:13:55.776Z,97853.06
2023-02-18T14:19:01.161Z,97840.59
2023-02-18T14:24:07.294Z,97852.16
2023-02-18T14:29:27.018Z,97858.66
2023-02-18T14:34:41.916Z,97855.84
2023-02-18T14:40:15.063Z,97848.94
2023-02-18T14:45:20.124Z,97854.75
2023-02-18T14:50:23.496Z,97872.88
2023-02-18T14:55:45.216Z,97878.25
2023-02-18T15:00:50.779Z,97876.97
2023-02-18T15:05:52.914Z,97895.88
2023-02-18T15:11:03.746Z,97927.78
2023-02-18T15:16:08.936Z,97907.97
2023-02-18T15:21:49.070Z,97896.25
2023-02-18T15:26:52.147Z,97902.09
2023-02-18T15:31:58.239Z,97896.78
2023-02-18T15:37:01.917Z,97911.31
2023-02-18T15:42:32.236Z,97915.38
2023-02-18T15:47:34.764Z,97910.91
2023-02-18T15:52:40.137Z,97928.09
2023-02-18T15:57:44.308Z,97904.16
2023-02-18T16:02:57.814Z,97912.88
2023-02-18T16:08:08.428Z,97916.03
2023-02-18T16:13:15.509Z,97923.13
2023-02-18T16:18:24.857Z,97918.91
2023-02-18T16:23:35.500Z,97920.50
2023-02-18T16:28:37.887Z,97947.28
2023-02-18T16:33:39.697Z,97943.34
2023-02-18T16:38:42.052Z,97956.44
2023-02-18T16:43:44.575Z,97971.16
2023-02-18T16:48:50.326Z,97975.09
2023-02-18T16:53:52.423Z,97975.81
2023-02-18T16:58:54.810Z,97981.66
2023-02-18T17:04:01.896Z,97972.78
2023-02-18T17:09:20.508Z,97995.31
2023-02-18T17:14:23.421Z,97997.66
2023-02-18T17:19:25.293Z,97992.84
2023-02-18T17:24:27.333Z,97984.63
2023-02-18T17:29:29.163Z,98005.72
2023-02-18T17:34:32.711Z,98003.31
2023-02-18T17:39:34.654Z,98019.50
2023-02-18T17:44:37.019Z,98027.53
2023-02-18T17:49:38.954Z,98020.13
2023-02-18T17:54:40.806Z,98031.72
2023-02-18T17:59:44.345Z,98045.69
2023-02-18T18:04:46.332Z,98041.22
2023-02-18T18:09:48.369Z,98056.47
2023-02-18T18:14:50.198Z,98058.47
2023-02-18T18:19:52.134Z,98063.88
2023-02-18T18:24:54.102Z,98070.91
2023-02-18T18:29:55.915Z,98085.00
2023-02-18T18:34:58.028Z,98095.16
2023-02-18T18:39:59.852Z,98113.97
2023-02-18T18:45:01.707Z,98092.47
2023-02-18T18:50:03.653Z,98094.50
2023-02-18T18:55:30.822Z,98098.06
2023-02-18T19:00:43.735Z,98107.34
2023-02-18T19:05:47.530Z,98121.34
2023-02-18T19:10:55.901Z,98111.22
2023-02-18T19:16:07.646Z,98118.22
2023-02-18T19:21:10.303Z,98119.41
2023-02-18T19:26:14.701Z,98144.59
2023-02-18T19:31:16.961Z,98117.44
2023-02-18T19:36:19.225Z,98120.53
2023-02-18T19:41:21.214Z,98133.56
2023-02-18T19:46:23.508Z,98138.84
2023-02-18T19:51:26.332Z,98134.88
2023-02-18T19:56:28.265Z,98136.31
2023-02-18T20:01:30.189Z,98134.72
2023-02-18T20:06:32.137Z,98133.13
2023-02-18T20:11:34.386Z,98139.31
2023-02-18T20:16:37.210Z,98151.31
2023-02-18T20:21:39.710Z,98145.47
2023-02-18T20:26:41.655Z,98141.47
2023-02-18T20:31:44.747Z,98153.72
2023-02-18T20:36:50.133Z,98150.59
2023-02-18T20:41:52.440Z,98157.59
2023-02-18T20:46:54.271Z,98163.81
2023-02-18T20:51:56.647Z,98161.03
2023-02-18T20:56:59.375Z,98164.88
2023-02-18T21:02:01.526Z,98155.19
2023-02-18T21:07:03.462Z,98159.03
2023-02-18T21:12:05.476Z,98138.19
2023-02-18T21:17:08.563Z,98156.03
2023-02-18T21:22:11.338Z,98145.19
2023-02-18T21:27:13.144Z,98159.88
2023-02-18T21:32:15.058Z,98155.66
2023-02-18T21:37:17.372Z,98162.31
2023-02-18T21:42:19.443Z,98158.47
2023-02-18T21:47:21.645Z,98166.25
2023-02-18T21:52:27.157Z,98155.47
2023-02-18T21:57:29.041Z,98158.59
2023-02-18T22:02:32.797Z,98150.47
2023-02-18T22:07:35.006Z,98160.81
2023-02-18T22:12:36.801Z,98165.38
2023-02-18T22:17:38.683Z,98160.59
2023-02-18T22:22:40.546Z,98159.09
2023-02-18T22:27:42.352Z,98166.16
2023-02-18T22:32:44.162Z,98163.72
2023-02-18T22:37:46.008Z,98168.66
2023-02-18T22:42:47.837Z,98172.72
2023-02-18T22:47:49.635Z,98171.31
2023-02-18T22:52:51.467Z,98171.19
2023-02-18T22:57:53.302Z,98177.00
2023-02-18T23:02:55.174Z,98171.19
2023-02-18T23:07:57.313Z,98151.75
2023-02-18T23:12:59.184Z,98159.59
2023-02-18T23:18:00.999Z,98167.00
2023-02-18T23:23:02.847Z,98162.81
2023-02-18T23:28:04.853Z,98166.25
2023-02-18T23:33:06.716Z,98168.88
2023-02-18T23:38:09.299Z,98153.38
2023-02-18T23:43:11.152Z,98155.38
2023-02-18T23:48:13.206Z,98153.03
2023-02-18T23:53:15.031Z,98143.69
2023-02-18T23:58:16.855Z,98148.25
